METAR Data
IDs: Format: Raw Decoded Include TAF

Data at: 1512 UTC 12 Dec 2018

PAPB 121453Z AUTO 30016G24KT 10SM SCT038 M01/M06 A2938 RMK AO2 PK WND 29035/1354 SLP939 60000 I3000 T10111061 53026 TSNO $
PAPB 121353Z AUTO 30024G35KT 10SM FEW012 SCT040 BKN050 M01/M04 A2934 RMK AO2 PK WND 25041/1308 SNE38 SLP925 P0000 T10061044 TSNO $
PAPB 121341Z AUTO 29023G38KT 7SM SCT016 SCT031 BKN040 M01/M02 A2935 RMK AO2 PK WND 25041/1308 SNE38 P0000 T10061022 TSNO $
PAPB 121334Z AUTO 27030G39KT 2SM -SN BR SCT012 BKN030 OVC041 00/M01 A2933 RMK AO2 PK WND 25041/1308 P0000 T00001006 TSNO $
PAPB 121325Z AUTO 26032G39KT 1 3/4SM -SN BR SCT012 BKN040 OVC075 00/M01 A2933 RMK AO2 PK WND 25041/1308 P0000 T00001006 TSNO $
PAPB 121308Z AUTO 25031G41KT 5SM -SN BR FEW007 BKN041 OVC070 M01/M01 A2932 RMK AO2 PK WND 25041/1308 P0000 T10061006 TSNO $
PAPB 121301Z AUTO 26032G40KT 2 1/2SM -SN BR FEW007 BKN032 OVC070 M01/M01 A2933 RMK AO2 PK WND 27040/1254 P0000 T10061011 TSNO $
PAPB 121258Z AUTO 26033G43KT 1 1/4SM -SN BR FEW007 BKN022 OVC070 M01/M01 A2932 RMK AO2 PK WND 27040/1254 P0000 T10111011 TSNO $
PAPB 121253Z AUTO 26031G45KT 3/4SM -SN BR FEW007 OVC017 M01/M01 A2933 RMK AO2 PK WND 26054/1213 SNEMMB52 SLP920 P0000 I1000 T10111011 TSNO $
PAPB 121244Z AUTO 28029G37KT 1/2SM FZFG FEW006 OVC015 M01/M01 A2933 RMK AO2 PK WND 26054/1213 SNEMM P0000 I1000 T10111011 PWINO FZRANO TSNO $
PAPB 121229Z AUTO 27034G50KT 3/4SM -SN BR BKN009 OVC020 M01/M02 A2933 RMK AO2 PK WND 26054/1213 P0000 T10061017 TSNO $
PAPB 121210Z AUTO 26037G51KT 1/2SM SN FZFG BKN013 OVC020 M01/M02 A2931 RMK AO2 PK WND 25051/1201 P0000 T10061017 TSNO $
PAPB 121200Z AUTO 25041G50KT 3/4SM -SN BR BKN015 OVC022 M01/M02 A2931 RMK AO2 PK WND 25050/1200 P0000 T10061022 TSNO $
PAPB 121153Z AUTO 25033G51KT 1 1/4SM -SN BR BKN019 OVC024 M01/M03 A2931 RMK AO2 PK WND 25051/1134 SLP913 P0000 60000 T10061028 10006 21028 58036 TSNO $
PAPB 121151Z AUTO 24032G51KT 1 1/4SM -SN BR BKN019 OVC024 M01/M03 A2932 RMK AO2 PK WND 25051/1134 P0000 TSNO $
PAPB 121145Z AUTO 25037G47KT 3/4SM -SN BR FEW017 BKN023 OVC031 M01/M02 A2931 RMK AO2 PK WND 25051/1134 P0000 T10061022 TSNO $
PAPB 121138Z AUTO 25037G51KT 1SM -SN BKN025 OVC034 00/M03 A2932 RMK AO2 PK WND 25051/1134 VIS 1/2V5 P0000 T00001033 TSNO $
PAPB 121135Z AUTO 25039G51KT 1 3/4SM -SN OVC031 01/M03 A2932 RMK AO2 PK WND 25051/1134 VIS 1/2V5 P0000 T00061033 TSNO $
PAPB 121121Z AUTO 24031G41KT 3SM -SN BR FEW021 OVC037 00/M02 A2932 RMK AO2 PK WND 25048/1104 P0000 T00001022 TSNO $
PAPB 121113Z AUTO 25030G48KT 1 1/4SM -SN BR FEW025 OVC037 M01/M02 A2933 RMK AO2 PK WND 25048/1104 VIS 3/4V4 P0000 T10061022 TSNO $
PAPB 121105Z AUTO 25036G48KT 1 3/4SM -SN BR BKN026 OVC039 M01/M02 A2933 RMK AO2 PK WND 25048/1104 VIS 3/4V5 P0000 T10061017 TSNO $
PAPB 121100Z AUTO 23032G42KT 3SM -SN BR FEW007 BKN018 OVC025 M01/M02 A2932 RMK AO2 PK WND 24042/1100 PRESFR P0000 T10111017 TSNO $
PAPB 121053Z AUTO 23017KT 2 1/2SM -SN BR FEW007 OVC018 M02/M02 A2935 RMK AO2 PK WND 24033/1033 SNE05B12 PRESFR SLP925 P0000 T10171022 TSNO $
PAPB 121050Z AUTO 22021KT 1SM -SN BR FEW007 OVC016 M02/M02 A2935 RMK AO2 PK WND 24033/1033 SNE05B12 PRESFR P0000 TSNO $
PAPB 121045Z AUTO 24018G27KT 1/2SM SN FZFG VV007 M02/M02 A2936 RMK AO2 PK WND 24033/1033 SNE05B12 P0000 T10171022 TSNO $
PAPB 121035Z AUTO 25026G33KT 1/2SM SN FZFG FEW007 OVC013 M02/M03 A2937 RMK AO2 PK WND 24033/1033 SNE05B12 P0000 T10221028 TSNO $
PAPB 121025Z AUTO 24017G23KT 3/4SM -SN BR BKN019 OVC095 M02/M04 A2938 RMK AO2 SNE05B12 P0000 T10221039 TSNO $
PAPB 121020Z AUTO 24014G23KT 1 1/2SM -SN BR FEW013 BKN026 OVC070 M02/M04 A2938 RMK AO2 SNE05B12 P0000 T10221039 TSNO $
PAPB 121009Z AUTO 23015KT 9SM FEW017 BKN036 OVC070 M02/M04 A2939 RMK AO2 SNE05 P0000 T10221044 TSNO $
PAPB 120953Z AUTO 24017KT 3SM -SN BR OVC027 M02/M04 A2940 RMK AO2 PK WND 27028/0917 SNB04 SLP943 P0000 T10221044 TSNO $
PAPB 120940Z AUTO 24019G26KT 1SM -SN FEW014 BKN020 OVC031 M02/M05 A2940 RMK AO2 PK WND 27028/0917 SNB04 P0000 T10221050 TSNO $
PAPB 120932Z AUTO 26021G26KT 2 1/2SM -SN FEW018 OVC028 M02/M05 A2941 RMK AO2 PK WND 27028/0917 SNB04 P0000 T10221050 TSNO $
PAPB 120920Z AUTO 25018G28KT 1 3/4SM -SN BKN032 OVC043 M02/M06 A2941 RMK AO2 PK WND 27028/0917 VIS 3/4V4 SNB04 P0000 T10171056 TSNO $
PAPB 120853Z AUTO 27015G24KT 10SM FEW043 BKN050 OVC060 M02/M08 A2941 RMK AO2 SLP949 T10171083 410111061 50004 TSNO $
PAPB 120753Z AUTO 30011KT 10SM FEW048 SCT080 BKN100 M02/M09 A2942 RMK AO2 PK WND 29027/0709 SLP950 T10221094 TSNO $
PAPB 120653Z AUTO 30016G23KT 10SM FEW033 BKN044 M03/M09 A2942 RMK AO2 PK WND 30028/0640 SLP950 T10281094 TSNO $
PAPB 120553Z AUTO 30019G27KT 10SM BKN048 BKN110 M03/M09 A2940 RMK AO2 PK WND 30027/0524 SLP944 60000 T10281094 11028 21044 53010 TSNO $
PAPB 120453Z AUTO 30018G26KT 10SM FEW033 BKN046 BKN060 M03/M08 A2939 RMK AO2 PK WND 32028/0355 SNE12 SLP940 P0000 T10331083 TSNO $
PAPB 120409Z AUTO 32013KT 3SM -SN SCT024 SCT032 BKN043 M04/M07 A2938 RMK AO2 PK WND 32028/0355 P0000 T10391072 TSNO $
PAPB 120359Z AUTO 32021G30KT 1 1/2SM -SN SCT026 BKN041 BKN047 M04/M07 A2938 RMK AO2 PK WND 32028/0355 VIS 3/4V5 P0000 T10391072 TSNO $
PAPB 120353Z AUTO 32023G30KT 5SM -SN FEW019 SCT040 BKN050 M04/M07 A2938 RMK AO2 PK WND 31030/0352 SNE0259B45 SLP936 P0000 T10391072 TSNO $
PAPB 120253Z AUTO 31016G23KT 6SM -SN FEW029 FEW036 BKN043 M03/M08 A2937 RMK AO2 SNB01E11B48 SLP934 P0000 60000 T10331078 53003 TSNO $
PAPB 120153Z AUTO 30016G25KT 6SM HZ FEW035 BKN050 OVC110 M04/M09 A2936 RMK AO2 SNB39E48 SLP931 P0000 T10391094 TSNO $
PAPB 120053Z AUTO 29014G19KT 10SM FEW025 BKN110 M04/M07 A2936 RMK AO2 SNB04E30 SLP931 P0000 T10391072 TSNO $
PAPB 120039Z AUTO 32011KT 8SM FEW019 SCT025 SCT110 M04/M07 A2936 RMK AO2 SNB04E30 P0000 T10441067 TSNO
PAPB 120026Z AUTO 33016KT 3SM -SN BKN021 BKN026 BKN050 M04/M07 A2936 RMK AO2 SNB04 P0000 T10391072 TSNO
PAPB 120021Z AUTO 32018KT 1 1/4SM -SN FEW019 BKN026 OVC055 M04/M07 A2936 RMK AO2 SNB04 P0000 T10391067 TSNO $
PAPB 120016Z AUTO 33021KT 1/2SM SN FZFG BKN024 BKN055 M04/M07 A2936 RMK AO2 SNB04 P0000 T10441067 TSNO $
PAPB 120007Z AUTO 32020G25KT 3/4SM -SN SCT027 BKN050 M04/M07 A2936 RMK AO2 SNB04 P0000 T10391072 TSNO $
PAPB 120005Z AUTO 32019G24KT 1 1/4SM -SN SCT037 BKN050 M03/M08 A2936 RMK AO2 SNB04 P0000 T10331078 TSNO $
PAPB 112353Z AUTO 32010KT 10SM SCT055 SCT065 M03/M10 A2936 RMK AO2 SLP931 60000 T10331100 11028 21061 58003 TSNO $
PAPB 112253Z AUTO M03/M09 A2937 RMK AO2 SLP935 T10281094 PWINO FZRANO TSNO $
PAPB 112153Z AUTO 32013KT 9SM FEW042 BKN055 BKN075 M03/M09 A2938 RMK AO2 SLP935 T10331089 TSNO $
PAPB 112053Z AUTO 33013KT 10SM SCT050 BKN070 BKN085 M03/M09 A2937 RMK AO2 SNB09E35 SLP934 P0000 60000 T10331094 53002 TSNO $
PAPB 111953Z AUTO 32014KT 10SM SCT050 BKN070 OVC085 M03/M08 A2936 RMK AO2 SNB1858E26 SLP932 P0000 T10331078 TSNO $
PAPB 111853Z AUTO 24004KT 10SM FEW035 OVC045 M04/M06 A2937 RMK AO2 SNB01E32 SLP933 P0000 T10391056 TSNO $
PAPB 111837Z AUTO 23005KT 9SM OVC034 M04/M06 A2937 RMK AO2 SNB01E32 P0000 T10391056 TSNO
PAPB 111812Z AUTO 31010KT SN BKN016 BKN075 OVC100 M04/M06 A2938 RMK AO2 SNB01 P0000 T10441061 TSNO $
PAPB 111753Z AUTO 35003KT FEW040 SCT050 BKN075 M06/M07 A2937 RMK AO2 SNB1656E26 SLP933 P0000 60000 T10561072 11028 21056 55002 TSNO $
PAPB 111717Z AUTO 30010KT 3SM -SN BKN024 OVC040 M04/M07 A2937 RMK AO2 SNB1656 P0000 T10441072 TSNO $
PAPB 111707Z AUTO 31016G25KT 1 1/4SM -SN BKN020 BKN041 BKN049 M04/M07 A2937 RMK AO2 SNB1656 P0000 T10441072 TSNO $
PAPB 111700Z AUTO 33017KT 2SM -SN BKN025 BKN041 BKN048 M04/M07 A2936 RMK AO2 SNB1656 P0000 T10441072 TSNO $
PAPB 111653Z AUTO 31016G20KT 9SM FEW025 BKN044 M04/M08 A2937 RMK AO2 SNE11 SLP932 P0000 T10391078 TSNO $
PAPB 111623Z AUTO 32007KT 10SM SCT026 SCT070 M04/M08 A2937 RMK AO2 SNE11 P0000 T10441083 TSNO $
PAPB 111615Z AUTO 31006KT 9SM BKN027 BKN070 BKN090 M04/M07 A2937 RMK AO2 SNE11 P0000 T10391072 TSNO $
PAPB 111608Z AUTO 30004KT 2SM -SN BKN032 OVC090 M04/M07 A2937 RMK AO2 P0000 T10391072 TSNO $
PAPB 111558Z AUTO 32010KT 1 3/4SM -SN BKN027 BKN090 BKN120 M04/M07 A2937 RMK AO2 P0000 T10391072 TSNO $
PAPB 111553Z AUTO 32011KT 6SM -SN BKN038 BKN090 BKN120 M04/M08 A2937 RMK AO2 SNB52 SLP933 P0000 T10391078 TSNO $
PAPB 111453Z AUTO 31012KT 10SM FEW039 OVC055 M03/M09 A2937 RMK AO2 SLP935 60000 T10331089 58003 TSNO $
PAPB 111353Z AUTO 30010KT 10SM SCT110 M04/M08 A2938 RMK AO2 SNB1259E11 SLP938 P0000 T10391078 TSNO $
PAPB 111253Z AUTO 32012KT 10SM FEW016 FEW023 M04/M07 A2939 RMK AO2 SLP939 T10391072 TSNO $
PAPB 111153Z AUTO 30014KT 10SM SCT048 BKN090 M03/M10 A2938 RMK AO2 PK WND 31028/1114 SNB16E30 SLP938 P0000 60000 T10331100 11028 21044 51010 TSNO $
PAPB 111053Z AUTO 28015G24KT 9SM BKN045 BKN055 BKN070 M03/M07 A2938 RMK AO2 SLP937 T10281072 TSNO $
PAPB 110953Z AUTO 31016KT 8SM FEW041 SCT055 SCT085 M04/M09 A2938 RMK AO2 PK WND 31033/0938 SNB34E53 SLP937 P0000 T10391089 TSNO $
PAPB 110853Z AUTO 30017G23KT 10SM FEW050 M03/M07 A2935 RMK AO2 PK WND 31034/0807 SNB09E34 SLP928 P0000 60000 T10331072 400221044 51019 TSNO $
PAPB 110841Z AUTO 30013G20KT 10SM SCT024 M04/M07 A2936 RMK AO2 PK WND 31034/0807 SNB09E34 P0000 T10391067 TSNO $
PAPB 110828Z AUTO 30013G24KT 3SM -SN BKN026 BKN050 M04/M07 A2936 RMK AO2 PK WND 31034/0807 SNB09 P0000 T10441072 TSNO $
PAPB 110823Z AUTO 31016G27KT 1 1/4SM -SN BKN024 BKN043 OVC050 M04/M07 A2936 RMK AO2 PK WND 31034/0807 SNB09 P0000 T10441072 TSNO $
PAPB 110815Z AUTO 31022G34KT 1 3/4SM -SN SCT026 BKN050 M04/M07 A2935 RMK AO2 PK WND 31034/0807 SNB09 P0000 T10441072 TSNO $
PAPB 110753Z AUTO 32017G25KT 10SM FEW029 FEW049 SCT075 M03/M10 A2934 RMK AO2 PK WND 32034/0722 SNB0656E09B24E37 SLP923 P0000 T10331100 TSNO $
PAPB 110731Z AUTO 32017G34KT 3SM -SN FEW005 SCT035 BKN070 M04/M08 A2934 RMK AO2 PK WND 32034/0722 SNB0656E09B24 P0000 T10441078 TSNO $
PAPB 110711Z AUTO 31018G29KT 9SM SCT046 BKN070 M03/M07 A2932 RMK AO2 PK WND 32030/0655 SNB0656E09 P0000 T10331072 TSNO $
PAPB 110704Z AUTO 32021G29KT 2 1/2SM -SN SCT038 BKN070 M03/M07 A2932 RMK AO2 PK WND 32030/0655 SNB0656 P0000 T10331067 TSNO $
PAPB 110653Z AUTO 31015G24KT 10SM FEW026 SCT040 BKN050 M03/M07 A2932 RMK AO2 PK WND 32027/0619 SNB18E32 SLP918 P0000 T10331067 TSNO $
PAPB 110553Z AUTO 32022G28KT 10SM FEW034 BKN041 M03/M08 A2930 RMK AO2 PK WND 34033/0510 SNE42 SLP909 P0000 60000 T10281078 11022 21044 51021 TSNO $
PAPB 110453Z AUTO 32015G27KT 4SM -SN BKN032 BKN043 M03/M07 A2928 RMK AO2 PK WND 33029/0428 SNE02B25 SLP903 P0000 T10331072 TSNO $
PAPB 110404Z AUTO 32019G27KT 9SM FEW010 SCT022 SCT042 M04/M07 A2926 RMK AO2 PK WND 34027/0356 SNE02 P0000 T10391072 TSNO $
PAPB 110356Z AUTO 34020G33KT 2SM -SN BR FEW012 SCT019 BKN038 M04/M07 A2926 RMK AO2 PK WND 34027/0356 P0000 T10441067 TSNO $
PAPB 110353Z AUTO 34023G34KT 1SM -SN SCT010 SCT022 BKN038 M04/M07 A2926 RMK AO2 PK WND 33034/0344 SNE0255B29 SLP896 P0000 T10441072 TSNO $
PAPB 110349Z AUTO 34028G34KT 3/4SM -SN BR SCT014 SCT022 BKN038 M04/M07 A2925 RMK AO2 PK WND 33034/0344 SNE0255B29 P0000 TSNO $
PAPB 110344Z AUTO 34028G34KT 1 3/4SM -SN SCT021 SCT040 BKN049 M04/M07 A2925 RMK AO2 PK WND 33034/0344 SNE0255B29 P0000 T10391072 TSNO $